sensor_id;sensor_type;location;lat;lon;timestamp;P1;durP1;ratioP1;P2;durP2;ratioP2
50128;SDS011;36026;45.478;9.224;2023-07-02T00:02:58;30.55;;;23.90;;
50128;SDS011;36026;45.478;9.224;2023-07-02T00:06:00;24.98;;;21.15;;
50128;SDS011;36026;45.478;9.224;2023-07-02T00:09:03;21.00;;;17.55;;
50128;SDS011;36026;45.478;9.224;2023-07-02T00:12:05;20.80;;;17.65;;
50128;SDS011;36026;45.478;9.224;2023-07-02T00:15:07;19.02;;;16.90;;
50128;SDS011;36026;45.478;9.224;2023-07-02T00:18:08;19.95;;;17.40;;
50128;SDS011;36026;45.478;9.224;2023-07-02T00:21:10;21.27;;;18.10;;
50128;SDS011;36026;45.478;9.224;2023-07-02T00:24:15;20.48;;;17.23;;
50128;SDS011;36026;45.478;9.224;2023-07-02T00:27:16;21.63;;;17.48;;
50128;SDS011;36026;45.478;9.224;2023-07-02T00:30:18;20.95;;;18.75;;
50128;SDS011;36026;45.478;9.224;2023-07-02T00:33:19;21.92;;;19.55;;
50128;SDS011;36026;45.478;9.224;2023-07-02T00:36:21;20.38;;;18.23;;
50128;SDS011;36026;45.478;9.224;2023-07-02T00:39:24;20.30;;;17.55;;
50128;SDS011;36026;45.478;9.224;2023-07-02T00:42:25;22.23;;;18.63;;
50128;SDS011;36026;45.478;9.224;2023-07-02T00:45:29;20.75;;;18.38;;
50128;SDS011;36026;45.478;9.224;2023-07-02T00:48:31;23.88;;;19.70;;
50128;SDS011;36026;45.478;9.224;2023-07-02T00:51:33;21.60;;;19.17;;
50128;SDS011;36026;45.478;9.224;2023-07-02T00:54:36;23.48;;;19.75;;
50128;SDS011;36026;45.478;9.224;2023-07-02T00:57:37;23.77;;;21.13;;
50128;SDS011;36026;45.478;9.224;2023-07-02T01:00:41;26.13;;;20.83;;
50128;SDS011;36026;45.478;9.224;2023-07-02T01:03:52;22.80;;;19.67;;
50128;SDS011;36026;45.478;9.224;2023-07-02T01:06:54;23.70;;;20.88;;
50128;SDS011;36026;45.478;9.224;2023-07-02T01:09:59;25.00;;;20.13;;
50128;SDS011;36026;45.478;9.224;2023-07-02T01:13:01;24.00;;;21.33;;
50128;SDS011;36026;45.478;9.224;2023-07-02T01:16:05;23.25;;;20.35;;
50128;SDS011;36026;45.478;9.224;2023-07-02T01:19:09;22.92;;;20.50;;
50128;SDS011;36026;45.478;9.224;2023-07-02T01:22:13;24.48;;;20.88;;
50128;SDS011;36026;45.478;9.224;2023-07-02T01:25:15;22.70;;;20.20;;
50128;SDS011;36026;45.478;9.224;2023-07-02T01:28:17;25.83;;;21.00;;
50128;SDS011;36026;45.478;9.224;2023-07-02T01:31:18;22.98;;;20.52;;
50128;SDS011;36026;45.478;9.224;2023-07-02T01:34:25;26.27;;;21.83;;
50128;SDS011;36026;45.478;9.224;2023-07-02T01:37:27;26.20;;;21.73;;
50128;SDS011;36026;45.478;9.224;2023-07-02T01:40:37;25.45;;;21.15;;
50128;SDS011;36026;45.478;9.224;2023-07-02T01:43:38;24.70;;;21.98;;
50128;SDS011;36026;45.478;9.224;2023-07-02T01:46:40;26.77;;;21.20;;
50128;SDS011;36026;45.478;9.224;2023-07-02T01:49:41;31.25;;;21.83;;
50128;SDS011;36026;45.478;9.224;2023-07-02T01:52:44;25.95;;;21.50;;
50128;SDS011;36026;45.478;9.224;2023-07-02T01:55:45;22.73;;;19.77;;
50128;SDS011;36026;45.478;9.224;2023-07-02T01:58:47;22.98;;;19.20;;
50128;SDS011;36026;45.478;9.224;2023-07-02T02:01:48;23.02;;;20.02;;
50128;SDS011;36026;45.478;9.224;2023-07-02T02:04:50;22.17;;;19.80;;
50128;SDS011;36026;45.478;9.224;2023-07-02T02:07:52;22.02;;;19.70;;
50128;SDS011;36026;45.478;9.224;2023-07-02T02:10:54;20.83;;;17.80;;
50128;SDS011;36026;45.478;9.224;2023-07-02T02:13:56;20.95;;;18.13;;
50128;SDS011;36026;45.478;9.224;2023-07-02T02:16:58;21.83;;;18.88;;
50128;SDS011;36026;45.478;9.224;2023-07-02T02:19:59;19.17;;;16.65;;
50128;SDS011;36026;45.478;9.224;2023-07-02T02:23:02;20.45;;;17.02;;
50128;SDS011;36026;45.478;9.224;2023-07-02T02:26:03;18.83;;;16.33;;
50128;SDS011;36026;45.478;9.224;2023-07-02T02:29:05;19.23;;;15.98;;
50128;SDS011;36026;45.478;9.224;2023-07-02T02:32:06;20.13;;;15.98;;
50128;SDS011;36026;45.478;9.224;2023-07-02T02:35:08;20.63;;;16.73;;
50128;SDS011;36026;45.478;9.224;2023-07-02T02:38:11;19.25;;;15.65;;
50128;SDS011;36026;45.478;9.224;2023-07-02T02:41:14;19.92;;;16.35;;
50128;SDS011;36026;45.478;9.224;2023-07-02T02:44:16;19.77;;;16.13;;
50128;SDS011;36026;45.478;9.224;2023-07-02T02:47:17;16.98;;;15.18;;
50128;SDS011;36026;45.478;9.224;2023-07-02T02:50:19;17.50;;;15.38;;
50128;SDS011;36026;45.478;9.224;2023-07-02T02:53:22;20.05;;;15.70;;
50128;SDS011;36026;45.478;9.224;2023-07-02T02:56:24;18.00;;;14.65;;
50128;SDS011;36026;45.478;9.224;2023-07-02T02:59:25;17.88;;;14.55;;
50128;SDS011;36026;45.478;9.224;2023-07-02T03:02:27;19.17;;;14.35;;
50128;SDS011;36026;45.478;9.224;2023-07-02T03:05:28;17.70;;;15.23;;
50128;SDS011;36026;45.478;9.224;2023-07-02T03:08:31;15.70;;;13.27;;
50128;SDS011;36026;45.478;9.224;2023-07-02T03:11:32;17.77;;;14.52;;
50128;SDS011;36026;45.478;9.224;2023-07-02T03:14:34;18.05;;;14.68;;
50128;SDS011;36026;45.478;9.224;2023-07-02T03:17:35;16.83;;;13.57;;
50128;SDS011;36026;45.478;9.224;2023-07-02T03:20:37;18.10;;;14.40;;
50128;SDS011;36026;45.478;9.224;2023-07-02T03:23:40;20.08;;;14.32;;
50128;SDS011;36026;45.478;9.224;2023-07-02T03:26:41;17.10;;;12.98;;
50128;SDS011;36026;45.478;9.224;2023-07-02T03:29:43;17.55;;;13.50;;
50128;SDS011;36026;45.478;9.224;2023-07-02T03:32:44;16.52;;;13.48;;
50128;SDS011;36026;45.478;9.224;2023-07-02T03:35:46;17.15;;;13.10;;
50128;SDS011;36026;45.478;9.224;2023-07-02T03:38:48;17.67;;;13.60;;
50128;SDS011;36026;45.478;9.224;2023-07-02T03:41:50;17.13;;;14.00;;
50128;SDS011;36026;45.478;9.224;2023-07-02T03:44:51;17.85;;;13.38;;
50128;SDS011;36026;45.478;9.224;2023-07-02T03:47:53;16.75;;;13.10;;
50128;SDS011;36026;45.478;9.224;2023-07-02T03:50:54;17.60;;;13.85;;
50128;SDS011;36026;45.478;9.224;2023-07-02T03:53:58;16.20;;;13.02;;
50128;SDS011;36026;45.478;9.224;2023-07-02T04:00:01;14.93;;;11.77;;
50128;SDS011;36026;45.478;9.224;2023-07-02T04:03:05;14.70;;;11.80;;
50128;SDS011;36026;45.478;9.224;2023-07-02T04:06:06;14.63;;;11.98;;
50128;SDS011;36026;45.478;9.224;2023-07-02T04:09:09;14.38;;;11.15;;
50128;SDS011;36026;45.478;9.224;2023-07-02T04:12:10;14.05;;;11.65;;
50128;SDS011;36026;45.478;9.224;2023-07-02T04:15:12;16.55;;;11.90;;
50128;SDS011;36026;45.478;9.224;2023-07-02T04:18:13;15.27;;;11.50;;
50128;SDS011;36026;45.478;9.224;2023-07-02T04:21:15;15.15;;;11.73;;
50128;SDS011;36026;45.478;9.224;2023-07-02T04:24:17;13.82;;;11.27;;
50128;SDS011;36026;45.478;9.224;2023-07-02T04:27:19;14.23;;;11.02;;
50128;SDS011;36026;45.478;9.224;2023-07-02T04:30:20;15.23;;;11.77;;
50128;SDS011;36026;45.478;9.224;2023-07-02T04:33:22;15.98;;;12.52;;
50128;SDS011;36026;45.478;9.224;2023-07-02T04:36:23;17.92;;;13.43;;
50128;SDS011;36026;45.478;9.224;2023-07-02T04:39:26;19.98;;;13.80;;
50128;SDS011;36026;45.478;9.224;2023-07-02T04:42:27;22.27;;;14.73;;
50128;SDS011;36026;45.478;9.224;2023-07-02T04:45:32;18.42;;;14.43;;
50128;SDS011;36026;45.478;9.224;2023-07-02T04:48:36;19.25;;;15.50;;
50128;SDS011;36026;45.478;9.224;2023-07-02T04:51:37;21.05;;;15.90;;
50128;SDS011;36026;45.478;9.224;2023-07-02T04:54:40;19.05;;;15.75;;
50128;SDS011;36026;45.478;9.224;2023-07-02T04:57:42;20.05;;;16.00;;
50128;SDS011;36026;45.478;9.224;2023-07-02T05:00:44;23.15;;;16.67;;
50128;SDS011;36026;45.478;9.224;2023-07-02T05:03:46;20.65;;;16.85;;
50128;SDS011;36026;45.478;9.224;2023-07-02T05:06:47;22.30;;;16.17;;
50128;SDS011;36026;45.478;9.224;2023-07-02T05:09:50;21.90;;;16.27;;
50128;SDS011;36026;45.478;9.224;2023-07-02T05:12:53;21.05;;;17.42;;
50128;SDS011;36026;45.478;9.224;2023-07-02T05:15:54;25.20;;;18.90;;
50128;SDS011;36026;45.478;9.224;2023-07-02T05:18:56;22.45;;;17.35;;
50128;SDS011;36026;45.478;9.224;2023-07-02T05:21:57;22.65;;;16.92;;
50128;SDS011;36026;45.478;9.224;2023-07-02T05:25:00;21.55;;;16.80;;
50128;SDS011;36026;45.478;9.224;2023-07-02T05:28:01;22.23;;;16.88;;
50128;SDS011;36026;45.478;9.224;2023-07-02T05:31:03;25.17;;;16.50;;
50128;SDS011;36026;45.478;9.224;2023-07-02T05:34:04;21.05;;;16.10;;
50128;SDS011;36026;45.478;9.224;2023-07-02T05:37:06;22.15;;;17.40;;
50128;SDS011;36026;45.478;9.224;2023-07-02T05:40:09;23.42;;;18.38;;
50128;SDS011;36026;45.478;9.224;2023-07-02T05:43:11;19.45;;;16.23;;
50128;SDS011;36026;45.478;9.224;2023-07-02T05:46:12;23.10;;;18.77;;
50128;SDS011;36026;45.478;9.224;2023-07-02T05:49:14;25.60;;;18.50;;
50128;SDS011;36026;45.478;9.224;2023-07-02T05:52:16;23.50;;;18.85;;
50128;SDS011;36026;45.478;9.224;2023-07-02T05:55:20;24.67;;;18.55;;
50128;SDS011;36026;45.478;9.224;2023-07-02T05:58:22;23.63;;;17.70;;
50128;SDS011;36026;45.478;9.224;2023-07-02T06:01:23;22.35;;;16.48;;
50128;SDS011;36026;45.478;9.224;2023-07-02T06:04:25;21.85;;;17.00;;
50128;SDS011;36026;45.478;9.224;2023-07-02T06:07:26;30.98;;;19.67;;
50128;SDS011;36026;45.478;9.224;2023-07-02T06:10:29;25.60;;;20.15;;
50128;SDS011;36026;45.478;9.224;2023-07-02T06:13:30;24.45;;;18.55;;
50128;SDS011;36026;45.478;9.224;2023-07-02T06:16:32;26.30;;;20.08;;
50128;SDS011;36026;45.478;9.224;2023-07-02T06:19:33;23.27;;;19.77;;
50128;SDS011;36026;45.478;9.224;2023-07-02T06:22:35;27.40;;;21.42;;
50128;SDS011;36026;45.478;9.224;2023-07-02T06:25:38;24.70;;;20.73;;
50128;SDS011;36026;45.478;9.224;2023-07-02T06:28:39;30.35;;;23.40;;
50128;SDS011;36026;45.478;9.224;2023-07-02T06:31:41;28.63;;;21.73;;
50128;SDS011;36026;45.478;9.224;2023-07-02T06:34:42;25.70;;;19.40;;
50128;SDS011;36026;45.478;9.224;2023-07-02T06:37:43;30.80;;;24.38;;
50128;SDS011;36026;45.478;9.224;2023-07-02T06:40:47;29.20;;;24.10;;
50128;SDS011;36026;45.478;9.224;2023-07-02T06:43:49;32.42;;;24.02;;
50128;SDS011;36026;45.478;9.224;2023-07-02T06:46:51;34.70;;;25.60;;
50128;SDS011;36026;45.478;9.224;2023-07-02T06:49:52;28.05;;;23.00;;
50128;SDS011;36026;45.478;9.224;2023-07-02T06:52:54;26.40;;;20.60;;
50128;SDS011;36026;45.478;9.224;2023-07-02T06:55:57;26.33;;;20.50;;
50128;SDS011;36026;45.478;9.224;2023-07-02T06:58:58;26.05;;;20.98;;
50128;SDS011;36026;45.478;9.224;2023-07-02T07:02:00;29.30;;;22.88;;
50128;SDS011;36026;45.478;9.224;2023-07-02T07:05:01;27.50;;;22.17;;
50128;SDS011;36026;45.478;9.224;2023-07-02T07:08:04;25.75;;;21.08;;
50128;SDS011;36026;45.478;9.224;2023-07-02T07:11:07;32.90;;;25.15;;
50128;SDS011;36026;45.478;9.224;2023-07-02T07:14:08;33.83;;;24.77;;
50128;SDS011;36026;45.478;9.224;2023-07-02T07:17:10;35.70;;;27.80;;
50128;SDS011;36026;45.478;9.224;2023-07-02T07:20:11;30.52;;;24.85;;
50128;SDS011;36026;45.478;9.224;2023-07-02T07:23:14;30.93;;;24.67;;
50128;SDS011;36026;45.478;9.224;2023-07-02T07:26:17;32.20;;;24.92;;
50128;SDS011;36026;45.478;9.224;2023-07-02T07:29:19;28.42;;;23.55;;
50128;SDS011;36026;45.478;9.224;2023-07-02T07:32:20;29.02;;;21.15;;
50128;SDS011;36026;45.478;9.224;2023-07-02T07:35:22;25.63;;;20.20;;
50128;SDS011;36026;45.478;9.224;2023-07-02T07:38:23;28.52;;;21.75;;
50128;SDS011;36026;45.478;9.224;2023-07-02T07:41:26;21.73;;;18.65;;
50128;SDS011;36026;45.478;9.224;2023-07-02T07:44:27;32.17;;;19.33;;
50128;SDS011;36026;45.478;9.224;2023-07-02T07:47:29;41.13;;;21.08;;
50128;SDS011;36026;45.478;9.224;2023-07-02T07:50:30;21.05;;;16.92;;
50128;SDS011;36026;45.478;9.224;2023-07-02T07:53:32;22.08;;;16.90;;
50128;SDS011;36026;45.478;9.224;2023-07-02T07:56:34;18.88;;;14.73;;
50128;SDS011;36026;45.478;9.224;2023-07-02T07:59:36;18.23;;;13.30;;
50128;SDS011;36026;45.478;9.224;2023-07-02T08:02:38;13.20;;;11.20;;
50128;SDS011;36026;45.478;9.224;2023-07-02T08:05:39;17.90;;;13.52;;
50128;SDS011;36026;45.478;9.224;2023-07-02T08:08:41;16.77;;;12.95;;
50128;SDS011;36026;45.478;9.224;2023-07-02T08:11:44;11.45;;;8.43;;
50128;SDS011;36026;45.478;9.224;2023-07-02T08:14:46;9.93;;;8.30;;
50128;SDS011;36026;45.478;9.224;2023-07-02T08:17:47;10.82;;;7.13;;
50128;SDS011;36026;45.478;9.224;2023-07-02T08:20:48;11.43;;;8.32;;
50128;SDS011;36026;45.478;9.224;2023-07-02T08:23:50;8.68;;;7.15;;
50128;SDS011;36026;45.478;9.224;2023-07-02T08:26:53;10.63;;;7.60;;
50128;SDS011;36026;45.478;9.224;2023-07-02T08:29:54;9.02;;;5.43;;
50128;SDS011;36026;45.478;9.224;2023-07-02T08:32:56;8.95;;;5.88;;
50128;SDS011;36026;45.478;9.224;2023-07-02T08:35:57;7.65;;;5.50;;
50128;SDS011;36026;45.478;9.224;2023-07-02T08:39:00;6.28;;;4.53;;
50128;SDS011;36026;45.478;9.224;2023-07-02T08:42:05;5.53;;;4.40;;
50128;SDS011;36026;45.478;9.224;2023-07-02T08:45:07;6.40;;;4.65;;
50128;SDS011;36026;45.478;9.224;2023-07-02T08:48:09;5.95;;;4.45;;
50128;SDS011;36026;45.478;9.224;2023-07-02T08:51:11;6.63;;;4.85;;
50128;SDS011;36026;45.478;9.224;2023-07-02T08:54:12;6.07;;;4.57;;
50128;SDS011;36026;45.478;9.224;2023-07-02T08:57:15;5.47;;;4.47;;
50128;SDS011;36026;45.478;9.224;2023-07-02T09:00:17;4.82;;;3.60;;
50128;SDS011;36026;45.478;9.224;2023-07-02T09:03:18;7.35;;;3.92;;
50128;SDS011;36026;45.478;9.224;2023-07-02T09:06:20;5.13;;;3.88;;
50128;SDS011;36026;45.478;9.224;2023-07-02T09:09:21;6.15;;;3.90;;
50128;SDS011;36026;45.478;9.224;2023-07-02T09:12:25;4.45;;;3.85;;
50128;SDS011;36026;45.478;9.224;2023-07-02T09:15:27;5.30;;;3.65;;
50128;SDS011;36026;45.478;9.224;2023-07-02T09:18:35;6.15;;;4.53;;
50128;SDS011;36026;45.478;9.224;2023-07-02T09:21:41;5.55;;;4.10;;
50128;SDS011;36026;45.478;9.224;2023-07-02T09:24:50;6.55;;;4.25;;
50128;SDS011;36026;45.478;9.224;2023-07-02T09:27:53;4.70;;;3.83;;
50128;SDS011;36026;45.478;9.224;2023-07-02T09:30:55;6.32;;;4.40;;
50128;SDS011;36026;45.478;9.224;2023-07-02T09:34:01;4.68;;;4.13;;
50128;SDS011;36026;45.478;9.224;2023-07-02T09:37:03;5.35;;;3.80;;
50128;SDS011;36026;45.478;9.224;2023-07-02T09:40:05;7.28;;;3.75;;
50128;SDS011;36026;45.478;9.224;2023-07-02T09:43:10;5.18;;;3.83;;
50128;SDS011;36026;45.478;9.224;2023-07-02T09:46:12;5.38;;;4.18;;
50128;SDS011;36026;45.478;9.224;2023-07-02T09:49:14;5.40;;;4.28;;
50128;SDS011;36026;45.478;9.224;2023-07-02T09:52:15;8.27;;;4.00;;
50128;SDS011;36026;45.478;9.224;2023-07-02T09:55:17;7.15;;;3.97;;
50128;SDS011;36026;45.478;9.224;2023-07-02T09:58:20;6.43;;;4.53;;
50128;SDS011;36026;45.478;9.224;2023-07-02T10:01:22;5.07;;;3.92;;
50128;SDS011;36026;45.478;9.224;2023-07-02T10:04:23;6.87;;;3.83;;
50128;SDS011;36026;45.478;9.224;2023-07-02T10:07:25;4.80;;;3.72;;
50128;SDS011;36026;45.478;9.224;2023-07-02T10:13:30;4.80;;;3.92;;
50128;SDS011;36026;45.478;9.224;2023-07-02T10:16:31;4.75;;;3.78;;
50128;SDS011;36026;45.478;9.224;2023-07-02T10:19:33;4.10;;;3.70;;
50128;SDS011;36026;45.478;9.224;2023-07-02T10:22:41;4.30;;;3.83;;
50128;SDS011;36026;45.478;9.224;2023-07-02T10:25:43;5.25;;;3.78;;
50128;SDS011;36026;45.478;9.224;2023-07-02T10:28:56;4.28;;;3.60;;
50128;SDS011;36026;45.478;9.224;2023-07-02T10:31:58;4.13;;;3.72;;
50128;SDS011;36026;45.478;9.224;2023-07-02T10:35:12;4.85;;;3.60;;
50128;SDS011;36026;45.478;9.224;2023-07-02T10:38:14;5.63;;;4.03;;
50128;SDS011;36026;45.478;9.224;2023-07-02T10:41:22;4.75;;;3.58;;
50128;SDS011;36026;45.478;9.224;2023-07-02T10:44:25;3.90;;;3.45;;
50128;SDS011;36026;45.478;9.224;2023-07-02T10:47:27;4.55;;;3.63;;
50128;SDS011;36026;45.478;9.224;2023-07-02T10:53:30;4.32;;;3.92;;
50128;SDS011;36026;45.478;9.224;2023-07-02T10:56:32;4.35;;;3.80;;
50128;SDS011;36026;45.478;9.224;2023-07-02T10:59:35;4.55;;;3.60;;
50128;SDS011;36026;45.478;9.224;2023-07-02T11:02:36;5.63;;;4.00;;
50128;SDS011;36026;45.478;9.224;2023-07-02T11:05:38;4.32;;;3.47;;
50128;SDS011;36026;45.478;9.224;2023-07-02T11:08:39;4.97;;;4.05;;
50128;SDS011;36026;45.478;9.224;2023-07-02T11:11:48;4.38;;;3.97;;
50128;SDS011;36026;45.478;9.224;2023-07-02T11:14:51;5.47;;;3.92;;
50128;SDS011;36026;45.478;9.224;2023-07-02T11:17:53;4.97;;;4.07;;
50128;SDS011;36026;45.478;9.224;2023-07-02T11:20:54;4.72;;;4.03;;
50128;SDS011;36026;45.478;9.224;2023-07-02T11:24:00;4.13;;;3.40;;
50128;SDS011;36026;45.478;9.224;2023-07-02T11:27:02;4.18;;;3.70;;
50128;SDS011;36026;45.478;9.224;2023-07-02T11:30:07;3.80;;;3.42;;
50128;SDS011;36026;45.478;9.224;2023-07-02T11:33:08;4.68;;;3.83;;
50128;SDS011;36026;45.478;9.224;2023-07-02T11:36:19;4.47;;;3.95;;
50128;SDS011;36026;45.478;9.224;2023-07-02T11:39:21;3.85;;;3.42;;
50128;SDS011;36026;45.478;9.224;2023-07-02T11:42:23;4.78;;;3.58;;
50128;SDS011;36026;45.478;9.224;2023-07-02T11:45:25;4.55;;;3.42;;
50128;SDS011;36026;45.478;9.224;2023-07-02T11:48:27;4.25;;;3.58;;
50128;SDS011;36026;45.478;9.224;2023-07-02T11:51:28;5.40;;;4.43;;
50128;SDS011;36026;45.478;9.224;2023-07-02T11:54:30;4.30;;;3.70;;
50128;SDS011;36026;45.478;9.224;2023-07-02T11:57:31;4.15;;;3.58;;
50128;SDS011;36026;45.478;9.224;2023-07-02T12:00:34;4.57;;;3.63;;
50128;SDS011;36026;45.478;9.224;2023-07-02T12:03:36;4.40;;;3.83;;
50128;SDS011;36026;45.478;9.224;2023-07-02T12:06:37;4.43;;;3.75;;
50128;SDS011;36026;45.478;9.224;2023-07-02T12:09:39;4.35;;;3.42;;
50128;SDS011;36026;45.478;9.224;2023-07-02T12:12:41;5.57;;;3.60;;
50128;SDS011;36026;45.478;9.224;2023-07-02T12:15:44;3.72;;;3.22;;
50128;SDS011;36026;45.478;9.224;2023-07-02T12:18:45;5.38;;;3.70;;
50128;SDS011;36026;45.478;9.224;2023-07-02T12:21:46;3.92;;;3.30;;
50128;SDS011;36026;45.478;9.224;2023-07-02T12:24:48;5.22;;;3.58;;
50128;SDS011;36026;45.478;9.224;2023-07-02T12:30:52;3.83;;;3.42;;
50128;SDS011;36026;45.478;9.224;2023-07-02T12:33:54;3.95;;;3.47;;
50128;SDS011;36026;45.478;9.224;2023-07-02T12:36:56;3.67;;;3.08;;
50128;SDS011;36026;45.478;9.224;2023-07-02T12:42:58;4.45;;;3.13;;
50128;SDS011;36026;45.478;9.224;2023-07-02T12:46:01;4.15;;;3.70;;
50128;SDS011;36026;45.478;9.224;2023-07-02T12:49:03;4.05;;;3.65;;
50128;SDS011;36026;45.478;9.224;2023-07-02T12:52:04;3.95;;;3.55;;
50128;SDS011;36026;45.478;9.224;2023-07-02T12:55:06;3.40;;;3.10;;
50128;SDS011;36026;45.478;9.224;2023-07-02T12:58:08;4.63;;;3.60;;
50128;SDS011;36026;45.478;9.224;2023-07-02T13:01:10;4.60;;;3.75;;
50128;SDS011;36026;45.478;9.224;2023-07-02T13:04:12;4.95;;;3.67;;
50128;SDS011;36026;45.478;9.224;2023-07-02T13:07:14;4.50;;;3.80;;
50128;SDS011;36026;45.478;9.224;2023-07-02T13:10:16;3.60;;;3.25;;
50128;SDS011;36026;45.478;9.224;2023-07-02T13:13:17;4.00;;;3.10;;
50128;SDS011;36026;45.478;9.224;2023-07-02T13:16:20;3.53;;;3.17;;
50128;SDS011;36026;45.478;9.224;2023-07-02T13:19:22;5.30;;;3.85;;
50128;SDS011;36026;45.478;9.224;2023-07-02T13:22:23;4.40;;;3.53;;
50128;SDS011;36026;45.478;9.224;2023-07-02T13:25:25;3.85;;;3.42;;
50128;SDS011;36026;45.478;9.224;2023-07-02T13:28:26;3.92;;;3.53;;
50128;SDS011;36026;45.478;9.224;2023-07-02T13:31:30;4.13;;;3.53;;
50128;SDS011;36026;45.478;9.224;2023-07-02T13:34:32;4.03;;;3.63;;
50128;SDS011;36026;45.478;9.224;2023-07-02T13:37:33;3.42;;;3.13;;
50128;SDS011;36026;45.478;9.224;2023-07-02T13:40:35;3.38;;;3.05;;
50128;SDS011;36026;45.478;9.224;2023-07-02T13:43:36;4.78;;;3.60;;
50128;SDS011;36026;45.478;9.224;2023-07-02T13:49:40;8.33;;;3.83;;
50128;SDS011;36026;45.478;9.224;2023-07-02T13:52:42;4.05;;;3.63;;
50128;SDS011;36026;45.478;9.224;2023-07-02T13:55:44;3.40;;;3.10;;
50128;SDS011;36026;45.478;9.224;2023-07-02T13:58:47;4.93;;;3.53;;
50128;SDS011;36026;45.478;9.224;2023-07-02T14:01:59;4.07;;;3.67;;
50128;SDS011;36026;45.478;9.224;2023-07-02T14:05:01;4.00;;;3.67;;
50128;SDS011;36026;45.478;9.224;2023-07-02T14:08:02;4.05;;;3.65;;
50128;SDS011;36026;45.478;9.224;2023-07-02T14:11:04;4.60;;;3.50;;
50128;SDS011;36026;45.478;9.224;2023-07-02T14:14:07;4.00;;;3.28;;
50128;SDS011;36026;45.478;9.224;2023-07-02T14:17:09;4.75;;;3.60;;
50128;SDS011;36026;45.478;9.224;2023-07-02T14:20:10;3.80;;;3.40;;
50128;SDS011;36026;45.478;9.224;2023-07-02T14:23:12;3.85;;;3.45;;
50128;SDS011;36026;45.478;9.224;2023-07-02T14:26:13;3.15;;;2.75;;
50128;SDS011;36026;45.478;9.224;2023-07-02T14:29:16;3.80;;;3.40;;
50128;SDS011;36026;45.478;9.224;2023-07-02T14:32:18;3.63;;;3.33;;
50128;SDS011;36026;45.478;9.224;2023-07-02T14:35:19;3.88;;;3.15;;
50128;SDS011;36026;45.478;9.224;2023-07-02T14:38:25;3.97;;;3.30;;
50128;SDS011;36026;45.478;9.224;2023-07-02T14:41:27;4.82;;;3.40;;
50128;SDS011;36026;45.478;9.224;2023-07-02T14:44:32;3.60;;;3.20;;
50128;SDS011;36026;45.478;9.224;2023-07-02T14:47:33;5.63;;;3.85;;
50128;SDS011;36026;45.478;9.224;2023-07-02T14:50:35;7.15;;;3.33;;
50128;SDS011;36026;45.478;9.224;2023-07-02T14:53:42;3.92;;;3.17;;
50128;SDS011;36026;45.478;9.224;2023-07-02T14:56:44;3.47;;;3.13;;
50128;SDS011;36026;45.478;9.224;2023-07-02T14:59:47;7.82;;;3.40;;
50128;SDS011;36026;45.478;9.224;2023-07-02T15:02:50;4.43;;;3.53;;
50128;SDS011;36026;45.478;9.224;2023-07-02T15:05:51;4.88;;;3.40;;
50128;SDS011;36026;45.478;9.224;2023-07-02T15:08:53;5.32;;;3.47;;
50128;SDS011;36026;45.478;9.224;2023-07-02T15:11:54;3.88;;;3.20;;
50128;SDS011;36026;45.478;9.224;2023-07-02T15:14:57;3.50;;;3.03;;
50128;SDS011;36026;45.478;9.224;2023-07-02T15:17:59;13.77;;;12.10;;
50128;SDS011;36026;45.478;9.224;2023-07-02T15:21:00;15.00;;;11.38;;
50128;SDS011;36026;45.478;9.224;2023-07-02T15:24:01;11.63;;;9.43;;
50128;SDS011;36026;45.478;9.224;2023-07-02T15:27:03;4.25;;;3.30;;
50128;SDS011;36026;45.478;9.224;2023-07-02T15:30:07;4.47;;;3.57;;
50128;SDS011;36026;45.478;9.224;2023-07-02T15:33:08;5.40;;;3.60;;
50128;SDS011;36026;45.478;9.224;2023-07-02T15:36:10;4.15;;;3.10;;
50128;SDS011;36026;45.478;9.224;2023-07-02T15:39:14;4.68;;;3.33;;
50128;SDS011;36026;45.478;9.224;2023-07-02T15:42:20;5.15;;;3.75;;
50128;SDS011;36026;45.478;9.224;2023-07-02T15:45:23;4.68;;;3.60;;
50128;SDS011;36026;45.478;9.224;2023-07-02T15:48:25;5.50;;;3.40;;
50128;SDS011;36026;45.478;9.224;2023-07-02T15:51:26;5.72;;;3.80;;
50128;SDS011;36026;45.478;9.224;2023-07-02T15:54:28;4.90;;;3.85;;
50128;SDS011;36026;45.478;9.224;2023-07-02T15:57:29;4.93;;;3.65;;
50128;SDS011;36026;45.478;9.224;2023-07-02T16:00:32;4.93;;;4.20;;
50128;SDS011;36026;45.478;9.224;2023-07-02T16:03:34;6.57;;;3.80;;
50128;SDS011;36026;45.478;9.224;2023-07-02T16:06:35;4.22;;;3.53;;
50128;SDS011;36026;45.478;9.224;2023-07-02T16:09:37;4.22;;;3.83;;
50128;SDS011;36026;45.478;9.224;2023-07-02T16:12:38;7.40;;;4.35;;
50128;SDS011;36026;45.478;9.224;2023-07-02T16:15:43;5.70;;;4.40;;
50128;SDS011;36026;45.478;9.224;2023-07-02T16:18:47;5.32;;;4.20;;
50128;SDS011;36026;45.478;9.224;2023-07-02T16:21:48;6.07;;;4.40;;
50128;SDS011;36026;45.478;9.224;2023-07-02T16:24:50;5.28;;;4.15;;
50128;SDS011;36026;45.478;9.224;2023-07-02T16:27:52;6.47;;;4.28;;
50128;SDS011;36026;45.478;9.224;2023-07-02T16:30:55;7.45;;;4.25;;
50128;SDS011;36026;45.478;9.224;2023-07-02T16:33:56;5.07;;;4.35;;
50128;SDS011;36026;45.478;9.224;2023-07-02T16:36:58;6.53;;;4.25;;
50128;SDS011;36026;45.478;9.224;2023-07-02T16:39:59;5.78;;;3.53;;
50128;SDS011;36026;45.478;9.224;2023-07-02T16:43:01;7.17;;;4.40;;
50128;SDS011;36026;45.478;9.224;2023-07-02T16:46:04;6.80;;;4.47;;
50128;SDS011;36026;45.478;9.224;2023-07-02T16:49:06;6.50;;;4.22;;
50128;SDS011;36026;45.478;9.224;2023-07-02T16:52:10;4.88;;;3.88;;
50128;SDS011;36026;45.478;9.224;2023-07-02T16:55:12;6.50;;;4.43;;
50128;SDS011;36026;45.478;9.224;2023-07-02T16:58:14;5.72;;;3.95;;
50128;SDS011;36026;45.478;9.224;2023-07-02T17:01:16;5.95;;;3.63;;
50128;SDS011;36026;45.478;9.224;2023-07-02T17:07:19;8.80;;;4.00;;
50128;SDS011;36026;45.478;9.224;2023-07-02T17:10:21;5.25;;;3.97;;
50128;SDS011;36026;45.478;9.224;2023-07-02T17:13:22;5.35;;;3.90;;
50128;SDS011;36026;45.478;9.224;2023-07-02T17:16:25;6.15;;;3.90;;
50128;SDS011;36026;45.478;9.224;2023-07-02T17:22:29;5.63;;;3.72;;
50128;SDS011;36026;45.478;9.224;2023-07-02T17:25:31;5.20;;;3.45;;
50128;SDS011;36026;45.478;9.224;2023-07-02T17:28:32;4.72;;;3.55;;
50128;SDS011;36026;45.478;9.224;2023-07-02T17:31:35;4.97;;;3.50;;
50128;SDS011;36026;45.478;9.224;2023-07-02T17:37:38;5.10;;;3.55;;
50128;SDS011;36026;45.478;9.224;2023-07-02T17:40:40;5.45;;;3.38;;
50128;SDS011;36026;45.478;9.224;2023-07-02T17:43:41;5.07;;;3.50;;
50128;SDS011;36026;45.478;9.224;2023-07-02T17:46:44;4.70;;;3.30;;
50128;SDS011;36026;45.478;9.224;2023-07-02T17:52:47;5.80;;;3.30;;
50128;SDS011;36026;45.478;9.224;2023-07-02T17:55:48;5.60;;;3.37;;
50128;SDS011;36026;45.478;9.224;2023-07-02T17:58:51;6.07;;;3.00;;
50128;SDS011;36026;45.478;9.224;2023-07-02T18:04:56;5.50;;;3.17;;
50128;SDS011;36026;45.478;9.224;2023-07-02T18:10:58;5.65;;;3.40;;
50128;SDS011;36026;45.478;9.224;2023-07-02T18:14:00;6.05;;;3.55;;
50128;SDS011;36026;45.478;9.224;2023-07-02T18:17:01;6.80;;;3.88;;
50128;SDS011;36026;45.478;9.224;2023-07-02T18:20:06;5.80;;;3.55;;
50128;SDS011;36026;45.478;9.224;2023-07-02T18:23:08;5.63;;;3.70;;
50128;SDS011;36026;45.478;9.224;2023-07-02T18:26:10;5.13;;;3.30;;
50128;SDS011;36026;45.478;9.224;2023-07-02T18:29:11;5.78;;;3.22;;
50128;SDS011;36026;45.478;9.224;2023-07-02T18:32:13;7.60;;;2.90;;
50128;SDS011;36026;45.478;9.224;2023-07-02T18:35:15;6.20;;;2.85;;
50128;SDS011;36026;45.478;9.224;2023-07-02T18:38:17;6.90;;;3.47;;
50128;SDS011;36026;45.478;9.224;2023-07-02T18:41:19;4.60;;;2.58;;